CNP8 weather

Greenbank Airport
Greenbank, Ontario, Canada

Public forecast

Using degrees Celsius for public forecast. Weather courtesy of forecast.io.

METAR (pilot weather report)

Closest report is Toronto/Oshawa Executive Airport, 13.6 nm (25.3 km) SSE. Retrieved 2019/02/19 23:00 UTC (53 minutes ago):

CYOO 192300Z AUTO 24005KT 9SM CLR M05/M13 A3057 RMK SLP364

TAF (pilot weather forecast)

Closest forecast is Toronto/Oshawa Executive Airport, 13.6 nm (25.3 km) SSE. Retrieved 2019/02/19 20:00 UTC (4 hours ago):

TAF CYOO 191938Z 1920/2008 25010KT P6SM -SN BKN030 TEMPO 1920/1924 P6SM NSW SCT030 FM200000 25005KT P6SM FEW025 BECMG 2000/2002 VRB03KT RMK FCST BASED ON AUTO OBS. NXT FCST BY 200200Z